aviador You're here:

KGRD Decoded Metar

GREENWOOD in SC, USA
Report Time2018-07-23 14:56:00
UTC Time2018-07-23 15:41:18
Flight Rules ifr IFR
WindVRB at 04 kt
Visibility9999 m
Phenomena:Light Rain
Clouds:Broken 006 Hf
Broken 042 Hf
Overcast 110 Hf
Expected CloudBase > 400 ft AGL from Temp-Dew spread
Ceiling600 ft
Temp23°C (ISA +9)
Dew Point22°C (94% RH)
QNH1011 hPa
Density Alt2,096 ft
Elevation607 ft
Report Wrong Elevation
Raw Report
KGRD 231456Z AUTO VRB04KT 7SM -RA BKN006 BKN042 OVC110 23/22 A2985
RMK AO2 RAB23 SLP102 P0001 60001 T02280217 51004=

Extra information for KGRD:More info

Metar Taf Metar & Taf Last 4 Metars F.Rules Stats Wind Profile Meteogram Temp Stats Airport Information Weather charts Add Link Nearby VenuesMetar ALERT Operation Metar Decoded Social comments

AIRNAV info for KGRD